Time;durP1;ratioP1;P1;durP2;ratioP2;P2;SDS_P1;SDS_P2;PMS_P1;PMS_P2;Temp;Humidity;BMP_temperature;BMP_pressure;BME280_temperature;BME280_humidity;BME280_pressure;Samples;Min_cycle;Max_cycle;Signal;HPM_P1;HPM_P2
2022/12/26 00:01:01;;;;;;;;;;;;;;;8.68;65.30;100542.72;5093942;28;19969;-54
2022/12/26 00:03:26;;;;;;;;;;;;;;;8.73;65.09;100529.56;5092583;28;19917;-54
2022/12/26 00:05:52;;;;;;;;;;;;;;;8.75;65.15;100539.16;5093851;28;19916;-57
2022/12/26 00:08:17;;;;;;;;;;;;;;;8.78;65.09;100525.16;5092699;28;19944;-56
2022/12/26 00:10:42;;;;;;;;;;;;;;;8.79;65.00;100519.88;5092676;28;20379;-56
2022/12/26 00:13:08;;;;;;;;;;;;;;;8.79;65.12;100521.66;5093856;28;19923;-55
2022/12/26 00:15:33;;;;;;;;;;;;;;;8.78;65.00;100515.53;5093873;28;19924;-55
2022/12/26 00:17:59;;;;;;;;;;;;;;;8.76;65.33;100522.53;5093751;28;19916;-52
2022/12/26 00:20:24;;;;;;;;;;;;;;;8.78;65.28;100525.16;5093928;28;19928;-53
2022/12/26 00:22:49;;;;;;;;;;;;;;;8.80;65.26;100529.47;5093817;28;20024;-56
2022/12/26 00:25:14;;;;;;;;;;;;;;;8.87;64.95;100522.41;5093815;28;19920;-54
2022/12/26 00:27:40;;;;;;;;;;;;;;;8.79;65.14;100526.88;5093701;28;19931;-54
2022/12/26 00:30:05;;;;;;;;;;;;;;;8.85;65.13;100526.78;5093590;28;19920;-53
2022/12/26 00:32:31;;;;;;;;;;;;;;;8.82;65.17;100512.00;5093399;28;19927;-53
2022/12/26 00:34:56;;;;;;;;;;;;;;;8.75;65.44;100504.22;5092631;28;19916;-54
2022/12/26 00:37:21;;;;;;;;;;;;;;;8.70;65.60;100521.72;5093891;28;20393;-53
2022/12/26 00:39:47;;;;;;;;;;;;;;;8.77;65.33;100520.78;5093511;28;19920;-55
2022/12/26 00:42:12;;;;;;;;;;;;;;;8.77;65.45;100511.16;5093590;28;20452;-55
2022/12/26 00:44:37;;;;;;;;;;;;;;;8.79;65.36;100500.69;5093265;28;19920;-49
2022/12/26 00:47:02;;;;;;;;;;;;;;;8.84;65.23;100491.00;5093306;28;19920;-51
2022/12/26 00:49:28;;;;;;;;;;;;;;;8.83;65.34;100481.41;5093388;28;20376;-55
2022/12/26 00:51:53;;;;;;;;;;;;;;;8.87;65.28;100470.00;5092233;28;19973;-54
2022/12/26 00:54:18;;;;;;;;;;;;;;;8.80;65.36;100465.72;5091864;28;19931;-53
2022/12/26 00:56:44;;;;;;;;;;;;;;;8.84;65.23;100467.41;5093320;28;19920;-49
2022/12/26 00:59:09;;;;;;;;;;;;;;;8.84;65.33;100463.03;5093279;28;20362;-51
2022/12/26 01:01:34;;;;;;;;;;;;;;;8.85;65.24;100461.28;5093711;28;19916;-51
2022/12/26 01:04:00;;;;;;;;;;;;;;;8.86;65.22;100460.41;5097091;28;20293;-53
2022/12/26 01:06:25;;;;;;;;;;;;;;;8.77;65.68;100452.66;5096896;28;20360;-52
2022/12/26 01:08:51;;;;;;;;;;;;;;;8.77;65.83;100458.75;5096762;28;19930;-55
2022/12/26 01:11:38;;;;;;;;;;;;;;;8.76;65.84;100450.94;5096458;28;19962;-53
2022/12/26 01:14:04;;;;;;;;;;;;;;;8.84;65.61;100462.19;5096730;28;19927;-53
2022/12/26 01:16:30;;;;;;;;;;;;;;;8.78;65.72;100460.53;5096703;28;19916;-52
2022/12/26 01:18:55;;;;;;;;;;;;;;;8.80;65.80;100452.63;5078906;28;19927;-55
2022/12/26 01:21:20;;;;;;;;;;;;;;;8.89;65.62;100447.25;5096603;28;20268;-55
2022/12/26 01:23:46;;;;;;;;;;;;;;;8.94;65.37;100437.59;5095428;28;19928;-54
2022/12/26 01:26:11;;;;;;;;;;;;;;;8.97;65.23;100432.28;5096939;28;19916;-55
2022/12/26 01:28:36;;;;;;;;;;;;;;;8.94;65.21;100419.25;5096608;28;20019;-53
2022/12/26 01:31:02;;;;;;;;;;;;;;;8.94;65.26;100419.25;5096351;28;19920;-53
2022/12/26 01:33:28;;;;;;;;;;;;;;;8.99;65.16;100416.56;5096683;28;19916;-51
2022/12/26 01:35:53;;;;;;;;;;;;;;;8.97;65.22;100400.84;5094998;28;20015;-54
2022/12/26 01:38:19;;;;;;;;;;;;;;;8.96;65.31;100393.00;5096336;28;20264;-53
2022/12/26 01:40:45;;;;;;;;;;;;;;;9.00;65.07;100392.94;5096311;28;19970;-54
2022/12/26 01:43:11;;;;;;;;;;;;;;;8.95;65.30;100392.16;5097270;28;19978;-55
2022/12/26 01:45:36;;;;;;;;;;;;;;;9.02;65.19;100385.94;5098029;28;20360;-54
2022/12/26 01:48:11;;;;;;;;;;;;;;;9.06;65.23;100379.75;5096882;28;20401;-54
2022/12/26 01:50:39;;;;;;;;;;;;;;;9.08;65.21;100371.84;5095027;28;19916;-50
2022/12/26 01:53:13;;;;;;;;;;;;;;;9.03;65.32;100371.06;5094854;28;20360;-50
2022/12/26 01:55:39;;;;;;;;;;;;;;;9.02;65.44;100357.09;5095750;28;19928;-55
2022/12/26 01:58:08;;;;;;;;;;;;;;;9.04;65.51;100354.44;5095869;28;19920;-51
2022/12/26 02:00:35;;;;;;;;;;;;;;;9.08;65.57;100359.63;5094817;28;19916;-52
2022/12/26 02:05:44;;;;;;;;;;;;;;;9.04;65.65;100346.59;5096187;28;20024;-54
2022/12/26 02:08:16;;;;;;;;;;;;;;;9.06;65.56;100343.06;5094598;28;19959;-54
2022/12/26 02:10:50;;;;;;;;;;;;;;;9.06;65.55;100342.19;5095667;28;20440;-56
2022/12/26 02:13:16;;;;;;;;;;;;;;;9.08;65.60;100333.41;5095731;28;19916;-54
2022/12/26 02:15:41;;;;;;;;;;;;;;;9.08;65.57;100328.16;5095773;28;20016;-54
2022/12/26 02:18:07;;;;;;;;;;;;;;;9.08;65.47;100317.69;5095708;28;19927;-53
2022/12/26 02:20:39;;;;;;;;;;;;;;;9.10;65.59;100315.91;5095647;28;19920;-52
2022/12/26 02:23:32;;;;;;;;;;;;;;;9.09;65.50;100300.19;5095473;28;19926;-54
2022/12/26 02:25:57;;;;;;;;;;;;;;;9.09;65.82;100300.19;5095816;28;20004;-53
2022/12/26 02:28:41;;;;;;;;;;;;;;;9.12;65.49;100282.66;5095444;28;19955;-53
2022/12/26 02:31:06;;;;;;;;;;;;;;;9.05;65.95;100283.66;5093987;28;19916;-51
2022/12/26 02:33:34;;;;;;;;;;;;;;;9.02;66.11;100264.50;5095125;28;19923;-54
2022/12/26 02:36:03;;;;;;;;;;;;;;;8.98;66.55;100254.97;5093689;28;19939;-51
2022/12/26 02:38:39;;;;;;;;;;;;;;;8.88;66.85;100246.38;5095131;28;19923;-52
2022/12/26 02:41:23;;;;;;;;;;;;;;;8.95;66.64;100234.91;5095232;28;19922;-51
2022/12/26 02:47:01;;;;;;;;;;;;;;;8.95;66.59;100229.69;5095453;28;19916;-54
2022/12/26 02:47:03;;;;;;;;;;;;;;;9.01;66.37;100226.94;5095111;28;19916;-54
2022/12/26 03:15:12;;;;;;;;;;;;;;;8.98;66.66;100156.25;5094522;28;20390;-55
2022/12/26 03:17:42;;;;;;;;;;;;;;;9.00;66.54;100151.84;5094499;28;19966;-54
2022/12/26 03:20:12;;;;;;;;;;;;;;;9.00;66.47;100145.72;5094533;28;19916;-55
2022/12/26 03:22:41;;;;;;;;;;;;;;;9.03;66.55;100148.31;5093124;28;19920;-56
2022/12/26 03:27:53;;;;;;;;;;;;;;;8.90;66.79;100139.81;5094696;28;19963;-55
2022/12/26 03:33:02;;;;;;;;;;;;;;;8.82;67.36;100124.22;5094739;28;19974;-56
2022/12/26 03:35:29;;;;;;;;;;;;;;;8.88;66.94;100116.25;5094211;28;19959;-55
2022/12/26 03:37:56;;;;;;;;;;;;;;;8.93;66.80;100097.81;5094151;28;20003;-54
2022/12/26 04:20:01;;;;;;;;;;;;;;;9.50;65.51;100041.59;5093848;28;19922;-55
2022/12/26 04:44:58;;;;;;;;;;;;;;;9.20;66.62;99999.41;5097929;28;19927;-53
2022/12/26 04:47:23;;;;;;;;;;;;;;;9.23;66.66;99995.88;5096431;28;19922;-54
2022/12/26 04:55:17;;;;;;;;;;;;;;;9.24;66.61;99976.63;5097440;28;19935;-54
2022/12/26 04:57:43;;;;;;;;;;;;;;;9.33;66.42;99979.03;5097316;28;20271;-56
2022/12/26 05:00:08;;;;;;;;;;;;;;;9.24;66.73;99971.38;5097317;28;20391;-55
2022/12/26 05:10:46;;;;;;;;;;;;;;;9.37;66.74;99946.59;5097136;28;19965;-55
2022/12/26 05:13:12;;;;;;;;;;;;;;;9.65;66.16;99941.53;5095779;28;19927;-54
2022/12/26 05:29:19;;;;;;;;;;;;;;;9.96;65.07;99911.91;5096621;28;19927;-54
2022/12/26 05:31:44;;;;;;;;;;;;;;;9.95;65.08;99907.56;5096423;28;19916;-54
2022/12/26 05:34:11;;;;;;;;;;;;;;;9.99;64.96;99910.06;5096310;28;19924;-55
2022/12/26 05:36:38;;;;;;;;;;;;;;;10.06;64.80;99910.75;5096433;28;20015;-55
2022/12/26 05:39:04;;;;;;;;;;;;;;;10.05;64.72;99907.28;5097082;28;19939;-55
2022/12/26 05:41:29;;;;;;;;;;;;;;;10.02;64.90;99899.47;5096597;28;19920;-54
2022/12/26 05:43:55;;;;;;;;;;;;;;;10.04;64.79;99891.56;5096550;28;19920;-53
2022/12/26 05:46:20;;;;;;;;;;;;;;;10.01;64.96;99879.38;5096547;28;19916;-54
2022/12/26 05:48:45;;;;;;;;;;;;;;;10.08;64.88;99887.94;5096034;28;20279;-56
2022/12/26 05:51:11;;;;;;;;;;;;;;;10.06;64.89;99872.25;5095999;28;20048;-55
2022/12/26 05:53:36;;;;;;;;;;;;;;;10.11;64.81;99869.50;5095927;28;19996;-55
2022/12/26 05:56:05;;;;;;;;;;;;;;;10.13;64.89;99867.66;5095058;28;19994;-55
2022/12/26 05:58:30;;;;;;;;;;;;;;;10.09;64.91;99864.28;5096528;28;19916;-55
2022/12/26 06:01:28;;;;;;;;;;;;;;;10.15;64.84;99862.38;5095347;28;20321;-52
2022/12/26 06:03:55;;;;;;;;;;;;;;;10.09;65.01;99853.78;5072488;28;19922;-54
2022/12/26 06:06:21;;;;;;;;;;;;;;;10.09;65.16;99843.28;5096068;28;19924;-55
2022/12/26 06:08:47;;;;;;;;;;;;;;;10.10;65.23;99850.25;5095995;28;19916;-56
2022/12/26 06:11:12;;;;;;;;;;;;;;;10.18;64.81;99849.19;5095799;28;19922;-55
2022/12/26 06:13:39;;;;;;;;;;;;;;;10.15;64.87;99836.13;5095809;28;19967;-54
2022/12/26 06:16:05;;;;;;;;;;;;;;;10.12;65.02;99835.31;5095427;28;20292;-55
2022/12/26 06:18:31;;;;;;;;;;;;;;;10.15;65.02;99831.75;5095521;28;20451;-54
2022/12/26 06:20:56;;;;;;;;;;;;;;;10.19;64.75;99824.66;5095777;28;19959;-51
2022/12/26 06:23:21;;;;;;;;;;;;;;;10.18;64.90;99825.56;5077379;28;20268;-53
2022/12/26 06:25:53;;;;;;;;;;;;;;;10.25;64.75;99814.88;5095739;28;19920;-54
2022/12/26 06:28:19;;;;;;;;;;;;;;;10.29;64.59;99810.34;5095440;28;19924;-53
2022/12/26 06:30:44;;;;;;;;;;;;;;;10.31;64.57;99811.19;5095408;28;19922;-54
2022/12/26 06:33:09;;;;;;;;;;;;;;;10.31;64.70;99805.94;5095229;28;20011;-53
2022/12/26 06:35:34;;;;;;;;;;;;;;;10.34;64.60;99805.84;5095148;28;19916;-54
2022/12/26 06:38:00;;;;;;;;;;;;;;;10.29;64.73;99791.97;5095422;28;19920;-54
2022/12/26 06:40:25;;;;;;;;;;;;;;;10.31;64.86;99805.94;5093989;28;20407;-55
2022/12/26 06:42:51;;;;;;;;;;;;;;;10.36;64.57;99793.53;5094812;28;19919;-56
2022/12/26 06:45:16;;;;;;;;;;;;;;;10.39;64.53;99793.44;5094864;28;19920;-55
2022/12/26 06:47:41;;;;;;;;;;;;;;;9.98;65.59;99795.50;5094934;28;20268;-56
2022/12/26 06:50:07;;;;;;;;;;;;;;;9.86;66.16;99778.31;5094776;28;19965;-55
2022/12/26 06:52:32;;;;;;;;;;;;;;;9.85;66.30;99783.59;5093893;28;19920;-53
2022/12/26 06:54:57;;;;;;;;;;;;;;;9.82;66.55;99775.84;5093358;28;20003;-53
2022/12/26 06:57:23;;;;;;;;;;;;;;;9.82;66.58;99773.22;5094922;28;19927;-54
2022/12/26 06:59:48;;;;;;;;;;;;;;;9.78;66.73;99768.94;5094042;28;19927;-56
2022/12/26 07:02:13;;;;;;;;;;;;;;;9.77;66.75;99765.44;5094639;28;20009;-56
2022/12/26 07:04:38;;;;;;;;;;;;;;;9.80;66.72;99762.75;5094744;28;19916;-54
2022/12/26 07:07:04;;;;;;;;;;;;;;;9.79;66.89;99761.03;5094822;28;20326;-54
2022/12/26 07:09:29;;;;;;;;;;;;;;;9.79;67.00;99755.78;5093567;28;19950;-54
2022/12/26 07:11:55;;;;;;;;;;;;;;;9.77;67.05;99751.47;5094641;28;19916;-56
2022/12/26 07:14:20;;;;;;;;;;;;;;;9.77;67.17;99751.47;5094455;28;19920;-56
2022/12/26 07:16:45;;;;;;;;;;;;;;;9.85;66.85;99760.88;5094459;28;19924;-56
2022/12/26 07:19:12;;;;;;;;;;;;;;;9.85;66.89;99778.34;5094701;28;19920;-54
2022/12/26 07:21:37;;;;;;;;;;;;;;;9.81;66.82;99756.59;5094470;28;19927;-52
2022/12/26 07:24:03;;;;;;;;;;;;;;;9.78;67.31;99779.44;5094365;28;20002;-53
2022/12/26 07:26:28;;;;;;;;;;;;;;;9.58;67.96;99787.88;5094433;28;20294;-55
2022/12/26 07:28:54;;;;;;;;;;;;;;;9.37;68.94;99790.16;5094461;28;19916;-55
2022/12/26 07:31:20;;;;;;;;;;;;;;;9.57;68.19;99762.50;5094070;28;19916;-56
2022/12/26 07:33:46;;;;;;;;;;;;;;;9.59;68.03;99748.47;5094443;28;19926;-56
2022/12/26 07:36:11;;;;;;;;;;;;;;;9.68;67.74;99749.97;5094253;28;19927;-57
2022/12/26 07:38:36;;;;;;;;;;;;;;;9.79;67.48;99750.53;5094224;28;19950;-56
2022/12/26 07:41:56;;;;;;;;;;;;;;;9.83;67.31;99746.06;5094474;28;20337;-56
2022/12/26 07:43:47;;;;;;;;;;;;;;;9.88;66.97;99739.75;5094105;28;19977;-55
2022/12/26 07:46:12;;;;;;;;;;;;;;;9.96;66.81;99734.28;5094281;28;19924;-57
2022/12/26 07:48:37;;;;;;;;;;;;;;;10.02;66.59;99725.41;5094610;28;19924;-53
2022/12/26 07:51:03;;;;;;;;;;;;;;;10.02;66.67;99726.25;5092988;28;19927;-56
2022/12/26 07:53:28;;;;;;;;;;;;;;;10.02;66.58;99726.25;5093824;28;19920;-58
2022/12/26 07:55:57;;;;;;;;;;;;;;;10.04;66.60;99729.69;5092624;28;20364;-54
2022/12/26 07:58:22;;;;;;;;;;;;;;;10.12;66.32;99719.81;5093921;28;20302;-55
2022/12/26 08:00:48;;;;;;;;;;;;;;;10.08;66.48;99728.69;5094206;28;19920;-53
2022/12/26 08:03:13;;;;;;;;;;;;;;;10.11;66.48;99731.22;5093891;28;19927;-54
2022/12/26 08:05:38;;;;;;;;;;;;;;;10.16;66.39;99733.69;5093927;28;19920;-57
2022/12/26 08:08:03;;;;;;;;;;;;;;;10.17;66.39;99724.06;5093873;28;19926;-57
2022/12/26 08:10:29;;;;;;;;;;;;;;;10.23;66.16;99721.25;5094630;28;19927;-55
2022/12/26 08:12:54;;;;;;;;;;;;;;;10.29;66.06;99715.84;5098060;28;20311;-56
2022/12/26 08:15:19;;;;;;;;;;;;;;;10.31;66.08;99721.91;5098167;28;19963;-56
2022/12/26 08:17:45;;;;;;;;;;;;;;;10.33;65.89;99709.56;5098094;28;19921;-56
2022/12/26 08:20:10;;;;;;;;;;;;;;;10.35;65.99;99705.16;5098248;28;20364;-57
2022/12/26 08:22:35;;;;;;;;;;;;;;;10.40;65.92;99700.59;5097928;28;19921;-55
2022/12/26 08:25:00;;;;;;;;;;;;;;;10.39;65.81;99701.53;5097827;28;19927;-54
2022/12/26 08:27:26;;;;;;;;;;;;;;;10.39;65.95;99698.91;5097747;28;19927;-56
2022/12/26 08:29:51;;;;;;;;;;;;;;;10.46;65.77;99694.31;5097569;28;20400;-54
2022/12/26 08:32:16;;;;;;;;;;;;;;;10.46;65.79;99689.91;5096626;28;19920;-54
2022/12/26 08:34:42;;;;;;;;;;;;;;;10.48;65.84;99693.34;5098027;28;19927;-57
2022/12/26 08:37:07;;;;;;;;;;;;;;;10.50;65.76;99696.78;5096983;28;19926;-54
2022/12/26 08:39:32;;;;;;;;;;;;;;;10.52;65.79;99694.97;5097754;28;19927;-56
2022/12/26 08:41:58;;;;;;;;;;;;;;;10.54;65.79;99687.91;5097549;28;19920;-56
2022/12/26 08:44:23;;;;;;;;;;;;;;;10.59;65.81;99698.25;5097707;28;19916;-55
2022/12/26 08:46:48;;;;;;;;;;;;;;;10.63;65.78;99692.00;5096265;28;20456;-55
2022/12/26 08:49:13;;;;;;;;;;;;;;;10.68;65.68;99684.81;5097915;28;19920;-57
2022/12/26 08:51:39;;;;;;;;;;;;;;;10.69;65.83;99680.41;5097419;28;19928;-55
2022/12/26 08:54:04;;;;;;;;;;;;;;;10.73;65.85;99680.28;5097090;28;19924;-56
2022/12/26 08:56:30;;;;;;;;;;;;;;;10.78;66.06;99685.38;5097318;28;20369;-54
2022/12/26 08:58:55;;;;;;;;;;;;;;;10.79;66.31;99681.84;5097138;28;19916;-57
2022/12/26 09:01:25;;;;;;;;;;;;;;;10.86;66.42;99683.34;5097456;28;19973;-54
2022/12/26 09:03:51;;;;;;;;;;;;;;;10.92;66.57;99671.75;5097092;28;19969;-56
2022/12/26 09:06:17;;;;;;;;;;;;;;;10.98;66.59;99680.31;5097047;28;20015;-55
2022/12/26 09:08:42;;;;;;;;;;;;;;;11.02;66.89;99667.91;5097017;28;20020;-55
2022/12/26 09:11:15;;;;;;;;;;;;;;;11.04;67.23;99666.06;5096930;28;20409;-56
2022/12/26 09:13:41;;;;;;;;;;;;;;;11.04;67.55;99666.94;5097140;28;19956;-56
2022/12/26 09:16:08;;;;;;;;;;;;;;;11.15;66.99;99678.84;5097022;28;19920;-56
2022/12/26 09:18:34;;;;;;;;;;;;;;;11.16;67.33;99670.91;5096934;28;19916;-55
2022/12/26 09:21:03;;;;;;;;;;;;;;;11.20;67.36;99672.50;5097121;28;19922;-57
2022/12/26 09:23:29;;;;;;;;;;;;;;;11.21;67.67;99676.00;5095994;28;19916;-57
2022/12/26 09:25:54;;;;;;;;;;;;;;;11.28;67.49;99669.63;5096973;28;19923;-56
2022/12/26 09:28:20;;;;;;;;;;;;;;;11.32;67.51;99674.69;5096766;28;19920;-55
2022/12/26 09:30:45;;;;;;;;;;;;;;;11.35;67.40;99679.00;5095647;28;20371;-55
2022/12/26 09:33:10;;;;;;;;;;;;;;;11.38;67.39;99668.38;5096689;28;19964;-56
2022/12/26 09:35:39;;;;;;;;;;;;;;;11.43;67.14;99671.69;5096423;28;19920;-56
2022/12/26 09:38:05;;;;;;;;;;;;;;;11.37;67.84;99671.94;5096466;28;19920;-54
2022/12/26 09:40:33;;;;;;;;;;;;;;;11.50;67.37;99674.97;5096312;28;20299;-54
2022/12/26 09:43:02;;;;;;;;;;;;;;;11.62;67.27;99671.03;5096414;28;19916;-56
2022/12/26 09:45:36;;;;;;;;;;;;;;;11.65;67.28;99665.63;5096532;28;19916;-56
2022/12/26 09:48:07;;;;;;;;;;;;;;;11.75;66.91;99656.50;5096418;28;20435;-55
2022/12/26 09:50:36;;;;;;;;;;;;;;;11.81;66.79;99651.00;5096279;28;19927;-54
2022/12/26 09:53:06;;;;;;;;;;;;;;;11.90;66.76;99653.31;5096033;28;20315;-54
2022/12/26 09:55:45;;;;;;;;;;;;;;;11.99;66.54;99652.94;5096148;28;19983;-55
2022/12/26 09:58:36;;;;;;;;;;;;;;;12.02;66.90;99646.72;5096195;28;19969;-55
2022/12/26 10:01:07;;;;;;;;;;;;;;;11.98;67.53;99651.25;5093756;28;20342;-57
2022/12/26 10:03:56;;;;;;;;;;;;;;;12.11;67.13;99656.03;5095870;28;19920;-55
2022/12/26 10:06:22;;;;;;;;;;;;;;;12.17;67.23;99639.97;5090260;28;19923;-56
2022/12/26 10:09:06;;;;;;;;;;;;;;;12.22;67.28;99643.28;5096281;28;19919;-57
2022/12/26 10:11:44;;;;;;;;;;;;;;;12.35;66.80;99644.50;5095852;28;19966;-56
2022/12/26 10:14:10;;;;;;;;;;;;;;;12.55;66.48;99635.78;5096420;28;19923;-56
2022/12/26 10:16:35;;;;;;;;;;;;;;;12.70;66.31;99635.16;5095636;28;19916;-57
2022/12/26 10:19:15;;;;;;;;;;;;;;;12.76;66.03;99631.38;5095746;28;20024;-56
2022/12/26 10:21:41;;;;;;;;;;;;;;;12.76;66.48;99634.03;5094979;28;19916;-58
2022/12/26 10:24:17;;;;;;;;;;;;;;;12.81;66.36;99634.69;5094242;28;19991;-57
2022/12/26 10:26:46;;;;;;;;;;;;;;;12.86;66.30;99624.81;5095761;28;19928;-57
2022/12/26 10:29:17;;;;;;;;;;;;;;;12.88;66.33;99625.59;5095591;28;19939;-57
2022/12/26 10:31:45;;;;;;;;;;;;;;;12.99;66.18;99607.53;5095327;28;19920;-57
2022/12/26 10:34:30;;;;;;;;;;;;;;;12.80;68.00;99606.59;5094497;28;19923;-57
2022/12/26 10:37:00;;;;;;;;;;;;;;;13.00;67.27;99611.00;5087727;28;20359;-58
2022/12/26 10:39:29;;;;;;;;;;;;;;;13.12;67.08;99599.91;5095657;28;19916;-54
2022/12/26 10:41:56;;;;;;;;;;;;;;;13.16;67.16;99598.00;5095462;28;19923;-57
2022/12/26 10:44:21;;;;;;;;;;;;;;;13.29;66.65;99596.59;5095409;28;19923;-56
2022/12/26 10:46:50;;;;;;;;;;;;;;;13.29;66.78;99596.59;5095196;28;19920;-56
2022/12/26 10:49:17;;;;;;;;;;;;;;;13.34;66.67;99612.19;5094998;28;19917;-56
2022/12/26 10:51:43;;;;;;;;;;;;;;;13.31;66.79;99600.84;5095165;28;19969;-55
2022/12/26 10:54:16;;;;;;;;;;;;;;;13.51;66.55;99605.22;5093281;28;19924;-58
2022/12/26 10:56:42;;;;;;;;;;;;;;;13.38;66.88;99601.44;5095108;28;19969;-56
2022/12/26 10:59:11;;;;;;;;;;;;;;;13.23;67.02;99595.06;5094677;28;19916;-58
2022/12/26 11:01:38;;;;;;;;;;;;;;;13.04;67.87;99608.16;5094480;28;19916;-56
2022/12/26 11:04:14;;;;;;;;;;;;;;;12.92;67.94;99603.44;5095017;28;20360;-58
2022/12/26 11:06:40;;;;;;;;;;;;;;;13.18;67.37;99588.25;5094987;28;19920;-56
2022/12/26 11:09:06;;;;;;;;;;;;;;;13.00;67.93;99605.75;5094867;28;19916;-57
2022/12/26 11:11:44;;;;;;;;;;;;;;;13.30;66.97;99588.59;5094549;28;19921;-59
2022/12/26 11:14:25;;;;;;;;;;;;;;;13.27;66.89;99590.50;5083151;28;19920;-57
2022/12/26 11:16:51;;;;;;;;;;;;;;;13.30;66.62;99593.88;5074468;28;19920;-55
2022/12/26 11:19:27;;;;;;;;;;;;;;;13.18;66.80;99601.44;5074455;28;19923;-55
2022/12/26 11:21:52;;;;;;;;;;;;;;;12.67;68.31;99608.06;5074201;28;19917;-56
2022/12/26 11:24:18;;;;;;;;;;;;;;;12.76;68.02;99605.88;5074191;28;19920;-58
2022/12/26 11:26:44;;;;;;;;;;;;;;;12.81;68.07;99600.44;5074096;28;20390;-56
2022/12/26 11:29:11;;;;;;;;;;;;;;;12.67;68.64;99606.28;5074743;28;19916;-54
2022/12/26 11:31:37;;;;;;;;;;;;;;;12.68;68.67;99609.75;5073872;28;19917;-54
2022/12/26 11:34:07;;;;;;;;;;;;;;;12.72;68.49;99619.25;5085005;28;19924;-56
2022/12/26 11:36:35;;;;;;;;;;;;;;;12.36;69.40;99624.28;5073309;28;19951;-56
2022/12/26 11:39:02;;;;;;;;;;;;;;;12.27;69.41;99615.84;5078133;28;20356;-54
2022/12/26 11:41:31;;;;;;;;;;;;;;;12.32;69.20;99619.13;5074199;28;19924;-58
2022/12/26 11:44:00;;;;;;;;;;;;;;;12.28;69.17;99617.53;5074017;28;19916;-56
2022/12/26 11:46:33;;;;;;;;;;;;;;;12.35;68.62;99625.22;5081498;28;19920;-58
2022/12/26 11:48:59;;;;;;;;;;;;;;;12.26;68.10;99626.44;5090777;28;19916;-58
2022/12/26 11:51:37;;;;;;;;;;;;;;;12.27;68.03;99609.72;5092016;28;19989;-58
2022/12/26 11:54:25;;;;;;;;;;;;;;;12.39;67.24;99613.63;5091795;28;19924;-56
2022/12/26 11:57:01;;;;;;;;;;;;;;;12.15;67.92;99615.47;5088020;28;20712;-58
2022/12/26 11:59:26;;;;;;;;;;;;;;;11.99;67.89;99631.88;5092357;28;19920;-56
2022/12/26 12:02:30;;;;;;;;;;;;;;;12.27;67.36;99625.53;5092958;28;19927;-58
2022/12/26 12:05:00;;;;;;;;;;;;;;;12.22;67.81;99630.97;5071713;28;20007;-55
2022/12/26 12:07:34;;;;;;;;;;;;;;;12.20;67.75;99630.16;5071357;28;19923;-55
2022/12/26 12:10:11;;;;;;;;;;;;;;;11.94;68.53;99639.09;5084139;28;19928;-56
2022/12/26 12:12:55;;;;;;;;;;;;;;;12.29;67.74;99643.00;5093853;28;19916;-57
2022/12/26 12:15:30;;;;;;;;;;;;;;;12.30;67.97;99647.31;5093978;28;19916;-56
2022/12/26 12:18:10;;;;;;;;;;;;;;;12.05;68.51;99652.72;5093788;28;20367;-58
2022/12/26 12:20:48;;;;;;;;;;;;;;;12.35;67.95;99649.78;5093986;28;19916;-58
2022/12/26 12:23:19;;;;;;;;;;;;;;;12.41;67.77;99659.19;5093716;28;21026;-57
2022/12/26 12:26:03;;;;;;;;;;;;;;;12.43;66.85;99666.13;5094043;28;20291;-57
2022/12/26 12:28:28;;;;;;;;;;;;;;;12.21;67.45;99667.94;5093781;28;20291;-58
2022/12/26 12:30:53;;;;;;;;;;;;;;;12.30;67.35;99672.81;5093478;28;19916;-58
2022/12/26 12:33:23;;;;;;;;;;;;;;;12.00;67.97;99674.88;5093624;28;19920;-57
2022/12/26 12:35:48;;;;;;;;;;;;;;;12.17;67.13;99658.41;5093645;28;19963;-57
2022/12/26 12:38:29;;;;;;;;;;;;;;;12.30;66.93;99667.53;5093444;28;19958;-57
2022/12/26 12:41:09;;;;;;;;;;;;;;;12.18;67.38;99671.53;5093765;28;19969;-54
2022/12/26 12:43:34;;;;;;;;;;;;;;;12.40;67.02;99668.88;5093586;28;19917;-58
2022/12/26 12:45:59;;;;;;;;;;;;;;;12.36;67.25;99664.66;5092303;28;19924;-57
2022/12/26 12:48:43;;;;;;;;;;;;;;;12.09;67.79;99661.34;5093750;28;19962;-57
2022/12/26 12:51:27;;;;;;;;;;;;;;;12.15;67.19;99662.88;5093604;28;20367;-57
2022/12/26 12:53:52;;;;;;;;;;;;;;;12.22;66.77;99659.09;5093269;28;19920;-61
2022/12/26 12:56:27;;;;;;;;;;;;;;;11.87;67.31;99652.56;5093386;28;20057;-56
2022/12/26 12:58:55;;;;;;;;;;;;;;;12.04;66.87;99655.41;5096052;28;19970;-56
2022/12/26 13:01:23;;;;;;;;;;;;;;;12.17;66.61;99646.13;5097281;28;20384;-55
2022/12/26 13:03:54;;;;;;;;;;;;;;;12.09;67.00;99653.47;5096974;28;19960;-57
2022/12/26 13:06:26;;;;;;;;;;;;;;;12.24;66.56;99655.47;5097236;28;19924;-57
2022/12/26 13:08:54;;;;;;;;;;;;;;;11.96;67.37;99647.78;5095740;28;19916;-56
2022/12/26 13:11:35;;;;;;;;;;;;;;;12.01;66.88;99650.28;5097168;28;20372;-56
2022/12/26 13:14:06;;;;;;;;;;;;;;;11.80;67.20;99651.91;5096671;28;19916;-55
2022/12/26 13:16:34;;;;;;;;;;;;;;;11.54;67.78;99666.06;5096785;28;19916;-53
2022/12/26 13:19:05;;;;;;;;;;;;;;;11.54;67.83;99664.28;5096922;28;19916;-57
2022/12/26 13:21:34;;;;;;;;;;;;;;;11.47;67.56;99673.31;5097043;28;20371;-57
2022/12/26 13:24:23;;;;;;;;;;;;;;;11.75;66.74;99669.66;5096610;28;19916;-53
2022/12/26 13:27:07;;;;;;;;;;;;;;;12.01;65.95;99671.34;5095279;28;19970;-56
2022/12/26 13:29:36;;;;;;;;;;;;;;;11.82;65.97;99679.03;5096421;28;20430;-55
2022/12/26 13:32:03;;;;;;;;;;;;;;;11.95;65.56;99682.09;5096811;28;19916;-57
2022/12/26 13:34:29;;;;;;;;;;;;;;;12.05;65.32;99684.31;5096363;28;20322;-56
2022/12/26 13:36:55;;;;;;;;;;;;;;;11.99;65.45;99687.16;5078060;28;19920;-56
2022/12/26 13:39:23;;;;;;;;;;;;;;;11.98;65.20;99689.88;5096755;28;19920;-54
2022/12/26 13:44:35;;;;;;;;;;;;;;;11.98;64.95;99690.72;5096374;28;19985;-56
2022/12/26 13:47:00;;;;;;;;;;;;;;;11.81;65.17;99691.34;5096589;28;20356;-57
2022/12/26 13:49:35;;;;;;;;;;;;;;;11.76;65.34;99687.16;5096023;28;19927;-57
2022/12/26 13:52:09;;;;;;;;;;;;;;;11.72;65.29;99685.53;5096242;28;19924;-56
2022/12/26 13:54:35;;;;;;;;;;;;;;;11.69;65.33;99690.91;5095832;28;19934;-56
2022/12/26 13:57:08;;;;;;;;;;;;;;;11.65;65.54;99692.84;5096045;28;20299;-57
2022/12/26 14:00:03;;;;;;;;;;;;;;;11.68;65.41;99703.22;5096322;28;19962;-57
2022/12/26 14:02:47;;;;;;;;;;;;;;;11.64;65.33;99692.88;5088546;28;19924;-57
2022/12/26 14:05:32;;;;;;;;;;;;;;;11.51;65.61;99690.69;5095319;28;20011;-57
2022/12/26 14:08:06;;;;;;;;;;;;;;;11.72;65.44;99703.97;5085292;28;19920;-59
2022/12/26 14:10:37;;;;;;;;;;;;;;;11.65;65.62;99689.31;5087026;28;19924;-56
2022/12/26 14:13:23;;;;;;;;;;;;;;;11.71;65.28;99695.22;5090730;28;20324;-56
2022/12/26 14:15:55;;;;;;;;;;;;;;;11.73;65.35;99708.31;5059482;28;19974;-57
2022/12/26 14:18:53;;;;;;;;;;;;;;;11.82;65.06;99708.00;5088471;28;19921;-56
2022/12/26 14:21:18;;;;;;;;;;;;;;;11.91;64.70;99712.06;5055665;28;19943;-56
2022/12/26 14:24:02;;;;;;;;;;;;;;;11.95;64.69;99704.00;5077357;28;20375;-54
2022/12/26 14:26:30;;;;;;;;;;;;;;;11.88;64.70;99702.50;5084179;28;19920;-57
2022/12/26 14:28:55;;;;;;;;;;;;;;;11.93;64.50;99710.22;5084078;28;20003;-57
2022/12/26 14:31:27;;;;;;;;;;;;;;;11.94;64.59;99715.47;5081826;28;19999;-54
2022/12/26 14:34:02;;;;;;;;;;;;;;;12.02;64.21;99716.03;5091566;28;19966;-57
2022/12/26 14:36:39;;;;;;;;;;;;;;;11.73;64.75;99705.69;5079770;28;19943;-59
2022/12/26 14:39:25;;;;;;;;;;;;;;;11.67;65.22;99713.81;5083950;28;19920;-57
2022/12/26 14:44:58;;;;;;;;;;;;;;;11.49;65.61;99721.47;5087771;28;19927;-56
2022/12/26 14:47:43;;;;;;;;;;;;;;;11.75;65.02;99723.13;5087440;28;19924;-57
2022/12/26 14:50:27;;;;;;;;;;;;;;;11.80;64.87;99722.97;5087999;28;19920;-58
2022/12/26 14:52:53;;;;;;;;;;;;;;;11.86;64.64;99735.09;5084888;28;19943;-57
2022/12/26 14:55:44;;;;;;;;;;;;;;;11.92;64.38;99735.69;5077666;28;20387;-56
2022/12/26 14:58:31;;;;;;;;;;;;;;;11.83;64.61;99739.53;5076895;28;19931;-57
2022/12/26 15:01:08;;;;;;;;;;;;;;;11.66;65.00;99748.94;5082521;28;19973;-57
2022/12/26 15:03:37;;;;;;;;;;;;;;;11.82;64.54;99737.81;5074516;28;20382;-58
2022/12/26 15:06:17;;;;;;;;;;;;;;;11.88;64.43;99746.41;5085029;28;20016;-58
2022/12/26 15:08:46;;;;;;;;;;;;;;;11.93;64.15;99747.97;5075622;28;19974;-57